• Join FlightAware (Why Join?)
  • Login
  • US Flag 
01:40PM EDT


 

Airport Tracker/Info


-or-


 

Live Flight TrackerFlight Track Log ✈ ASQ4537 ✈ 16-Oct-2013 ✈ KEWR - KMEM

Flight Track Log - Related Links

Times and Time Zones

All times are in EDT time to prevent confusion due to time zone crossing. See the ASQ4537 flight status page for this flight to view local times or setup timezone preferences in your user account.

Time Position Orientation Groundspeed Altitude Reporting Facility
EDT Latitude Longitude Course Direction KTS MPH feet Rate Location/Type
08:48AM 40.7333 -74.1333 242° Southwest 172 198 1,700  Level New York TRACON
08:49AM 40.7833 -74.1333 360° North 257 296 2,800 1,800 Climbing New York TRACON
08:50AM 40.7667 -74.2167 255° West 253 291 5,300 2,280 Climbing New York TRACON
08:51AM 40.5593 -74.6645 270° West  Level Estimated
08:52AM 40.5256 -74.7881 237° Southwest  Level Estimated
08:52AM 40.7531 -74.3569 263° West 264 304 8,600  Level New York Center
08:53AM 40.4919 -74.9116 242° Southwest  Level Estimated
08:53AM 40.7439 -74.4469 262° West 264 304 10,400  Level New York Center
08:54AM 40.7344 -74.5503 263° West 281 323 12,000 1,740 Climbing New York Center
08:55AM 40.7242 -74.6703 264° West 293 337 13,900 1,680 Climbing New York Center
08:56AM 40.7150 -74.7656 263° West 298 343 15,400 1,080 Climbing New York Center
08:57AM 40.7022 -74.8908 262° West 312 359 16,100 540 Climbing New York Center
08:58AM 40.6894 -75.0186 263° West 334 384 16,500 660 Climbing New York Center
08:59AM 40.6558 -75.1397 250° West 354 407 17,500 1,020 Climbing New York Center
09:00AM 40.6058 -75.2514 239° Southwest 354 407 18,600 900 Climbing New York Center
09:01AM 40.5603 -75.3494 239° Southwest 354 407 19,300 720 Climbing New York Center
09:02AM 40.5100 -75.4633 240° Southwest 354 407 20,100 720 Climbing New York Center
09:03AM 40.4575 -75.5744 238° Southwest 354 407 20,800 720 Climbing New York Center
09:04AM 40.4094 -75.6800 239° Southwest 354 407 21,600 660 Climbing New York Center
09:05AM 40.3592 -75.7883 239° Southwest 354 407 22,200 600 Climbing New York Center
09:06AM 40.3064 -75.9014 239° Southwest 349 402 22,800 600 Climbing New York Center
09:07AM 40.2492 -76.0169 237° Southwest 362 417 23,500 660 Climbing New York Center
09:08AM 40.1939 -76.1322 238° Southwest 367 422 24,200 720 Climbing New York Center
09:09AM 40.1428 -76.2478 240° Southwest 372 428 25,000 840 Climbing New York Center
09:10AM 40.0894 -76.3631 239° Southwest 372 428 25,900 900 Climbing New York Center
09:11AM 40.0403 -76.4758 240° Southwest 372 428 26,900 900 Climbing New York Center
09:12AM 39.9872 -76.5797 236° Southwest 364 419 27,800 900 Climbing New York Center
09:13AM 39.9381 -76.6867 239° Southwest 364 419 28,700 900 Climbing New York Center
09:14AM 39.8867 -76.7961 239° Southwest 359 413 29,600 960 Climbing New York Center
09:16AM 39.7825 -77.0117 238° Southwest 352 405 31,500 900 Climbing Washington Center
09:17AM 39.7331 -77.1186 239° Southwest 352 405 32,400 960 Climbing Washington Center
09:18AM 39.6731 -77.2469 239° Southwest 352 405 33,600 1,080 Climbing Washington Center
09:19AM 39.6236 -77.3536 239° Southwest 352 405 34,600 900 Climbing Washington Center
09:20AM 39.5742 -77.4544 238° Southwest 352 405 35,500 660 Climbing Washington Center
09:21AM 39.5247 -77.5608 239° Southwest 347 399 36,000 240 Climbing Washington Center
09:22AM 39.4728 -77.6669 238° Southwest 347 399 36,000  Level Washington Center
09:23AM 39.4208 -77.7783 239° Southwest 359 413 36,000  Level Washington Center
09:24AM 39.3667 -77.8950 239° Southwest 365 420 36,000  Level Washington Center
09:25AM 39.3206 -78.0169 244° Southwest 376 433 36,000  Level Washington Center
09:26AM 39.2722 -78.1386 243° Southwest 382 440 36,000  Level Washington Center
09:27AM 39.2214 -78.2600 242° Southwest 387 445 36,000  Level Washington Center
09:28AM 39.1728 -78.3814 243° Southwest 387 445 36,000  Level Washington Center
09:29AM 39.1242 -78.5000 242° Southwest 387 445 36,000  Level Washington Center
09:30AM 39.0753 -78.6236 243° Southwest 387 445 36,000  Level Washington Center
09:31AM 39.0264 -78.7447 243° Southwest 387 445 36,000  Level Washington Center
09:32AM 38.9772 -78.8625 242° Southwest 387 445 36,000  Level Washington Center
09:33AM 38.9281 -78.9833 242° Southwest 382 440 36,000  Level Washington Center
09:34AM 38.8789 -79.1036 242° Southwest 382 440 36,000  Level Washington Center
09:35AM 38.8356 -79.2242 245° Southwest 382 440 36,000  Level Washington Center
09:36AM 38.8108 -79.3481 256° West 377 434 36,000  Level Washington Center
09:37AM 38.7881 -79.4775 257° West 372 428 36,000  Level Washington Center
09:38AM 38.7714 -79.6017 260° West 380 437 36,000  Level Washington Center
09:39AM 38.7464 -79.7283 256° West 385 443 36,000  Level Washington Center
09:40AM 38.7250 -79.8575 258° West 385 443 36,000  Level Washington Center
09:41AM 38.6853 -80.0422 255° West 369 425 36,000  Level Indianapolis Center
09:42AM 38.6625 -80.1686 257° West 366 421 36,000  Level Indianapolis Center
09:43AM 38.6339 -80.3186 256° West 363 418 36,000  Level Indianapolis Center
09:44AM 38.6097 -80.4450 256° West 365 420 36,000  Level Indianapolis Center
09:46AM 38.5869 -80.5717 257° West 364 419 36,000  Level Indianapolis Center
09:47AM 38.5611 -80.6969 255° West 364 419 36,000  Level Indianapolis Center
09:48AM 38.5378 -80.8222 257° West 363 418 36,000  Level Indianapolis Center
09:49AM 38.5133 -80.9478 256° West 362 417 36,000  Level Indianapolis Center
09:50AM 38.4889 -81.0731 256° West 361 415 36,000  Level Indianapolis Center
09:51AM 38.4594 -81.2214 256° West 359 413 36,000  Level Indianapolis Center
09:52AM 38.4347 -81.3458 256° West 359 413 36,000  Level Indianapolis Center
09:53AM 38.4100 -81.4706 256° West 360 414 36,000  Level Indianapolis Center
09:54AM 38.3847 -81.5947 255° West 359 413 36,000  Level Indianapolis Center
09:55AM 38.3597 -81.7172 255° West 355 409 36,000  Level Indianapolis Center
09:56AM 38.3303 -81.8383 253° West 355 409 36,000  Level Indianapolis Center
09:57AM 38.2975 -81.9578 251° West 357 411 36,000  Level Indianapolis Center
09:58AM 38.2633 -82.0761 250° West 355 409 36,000  Level Indianapolis Center
09:59AM 38.2186 -82.1903 244° Southwest 366 421 36,000  Level Indianapolis Center
10:00AM 38.1564 -82.3228 239° Southwest 364 419 36,000  Level Indianapolis Center
10:01AM 38.1061 -82.4331 240° Southwest 362 417 36,000  Level Indianapolis Center
10:02AM 38.0500 -82.5547 240° Southwest 364 419 36,000  Level Indianapolis Center
10:03AM 38.0175 -82.6750 251° West 365 420 36,000  Level Indianapolis Center
10:04AM 37.9847 -82.7939 251° West 358 412 36,000  Level Indianapolis Center
10:05AM 37.9525 -82.9156 251° West 363 418 36,000  Level Indianapolis Center
10:06AM 37.9206 -83.0358 251° West 362 417 36,000  Level Indianapolis Center
10:07AM 37.8872 -83.1564 251° West 363 418 36,000  Level Indianapolis Center
10:08AM 37.8492 -83.2964 251° West 361 415 36,000  Level Indianapolis Center
10:09AM 37.8158 -83.4144 250° West 359 413 36,000  Level Indianapolis Center
10:10AM 37.7831 -83.5328 251° West 357 411 36,000  Level Indianapolis Center
10:11AM 37.7506 -83.6506 251° West 357 411 36,000  Level Indianapolis Center
10:12AM 37.7172 -83.7692 250° West 358 412 36,000  Level Indianapolis Center
10:13AM 37.6786 -83.9056 250° West 355 409 36,000  Level Indianapolis Center
10:14AM 37.6453 -84.0222 250° West 355 409 36,000  Level Indianapolis Center
10:15AM 37.6119 -84.1392 250° West 355 409 36,000  Level Indianapolis Center
10:17AM 37.5783 -84.2564 250° West 356 410 36,000  Level Indianapolis Center
10:18AM 37.5456 -84.3731 251° West 354 407 36,000  Level Indianapolis Center
10:19AM 37.5058 -84.5100 250° West 356 410 36,000  Level Indianapolis Center
10:20AM 37.4714 -84.6278 250° West 358 412 36,000  Level Indianapolis Center
10:21AM 37.4383 -84.7456 251° West 357 411 36,000  Level Indianapolis Center
10:22AM 37.4033 -84.8633 250° West 358 412 36,000  Level Indianapolis Center
10:23AM 37.3703 -84.9786 250° West 353 406 36,000  Level Indianapolis Center
10:24AM 37.3306 -85.1128 250° West 351 404 36,000  Level Indianapolis Center
10:25AM 37.2964 -85.2275 250° West 351 404 36,000  Level Indianapolis Center
10:26AM 37.2619 -85.3439 250° West 353 406 36,000  Level Indianapolis Center
10:27AM 37.2267 -85.4583 249° West 351 404 36,000  Level Indianapolis Center
10:28AM 37.1950 -85.5700 250° West 352 405 36,000  Level Indianapolis Center
10:29AM 37.1547 -85.7011 249° West 345 397 36,000  Level Indianapolis Center
10:30AM 37.1203 -85.8167 250° West 350 403 36,000  Level Indianapolis Center
10:31AM 37.0856 -85.9314 249° West 351 404 36,000  Level Indianapolis Center
10:32AM 37.0503 -86.0469 249° West 353 406 36,000  Level Indianapolis Center
10:33AM 37.0156 -86.1594 249° West 346 398 36,000  Level Indianapolis Center
10:34AM 36.9814 -86.2711 249° West 342 394 36,000  Level Indianapolis Center
10:35AM 36.9456 -86.3853 249° West 348 400 36,000  Level Indianapolis Center
10:36AM 36.8958 -86.5183 245° Southwest 357 411 36,000  Level Indianapolis Center
10:37AM 36.8472 -86.6278 241° Southwest 360 414 36,000  Level Indianapolis Center
10:38AM 36.7981 -86.7381 241° Southwest 361 415 36,000  Level Indianapolis Center
10:39AM 36.7506 -86.8478 242° Southwest 359 413 36,000  Level Indianapolis Center
10:40AM 36.7017 -86.9569 241° Southwest 359 413 36,000  Level Indianapolis Center
10:41AM 36.6547 -87.0669 242° Southwest 363 418 36,000  Level Memphis Center
10:42AM 36.6078 -87.1775 242° Southwest 363 418 36,000  Level Memphis Center
10:43AM 36.5561 -87.2856 239° Southwest 363 418 36,000  Level Memphis Center
10:44AM 36.5069 -87.3983 242° Southwest 363 418 36,000 -180 Level Memphis Center
10:45AM 36.4533 -87.5139 240° Southwest 363 418 35,700 -600 Descending Memphis Center
10:46AM 36.4056 -87.6186 240° Southwest 357 411 34,800 -1,140 Descending Memphis Center
10:47AM 36.3578 -87.7233 240° Southwest 357 411 33,500 -1,260 Descending Memphis Center
10:48AM 36.3100 -87.8278 240° Southwest 357 411 32,300 -1,200 Descending Memphis Center
10:49AM 36.2600 -87.9375 241° Southwest 357 411 31,200 -1,200 Descending Memphis Center
10:50AM 36.2100 -88.0469 241° Southwest 363 418 30,000 -1,200 Descending Memphis Center
10:51AM 36.1597 -88.1514 239° Southwest 363 418 28,800 -1,200 Descending Memphis Center
10:52AM 36.1056 -88.2683 240° Southwest 373 429 27,600 -1,200 Descending Memphis Center
10:53AM 36.0492 -88.3853 239° Southwest 394 453 26,400 -1,200 Descending Memphis Center
10:54AM 35.9986 -88.4969 241° Southwest 388 447 25,200 -1,320 Descending Memphis Center
10:55AM 35.9500 -88.6031 241° Southwest 376 433 23,900 -1,200 Descending Memphis Center
10:56AM 35.8975 -88.7092 239° Southwest 376 433 22,800 -1,200 Descending Memphis Center
10:57AM 35.8467 -88.8206 241° Southwest 371 427 21,500 -1,320 Descending Memphis Center
10:58AM 35.7958 -88.9289 240° Southwest 371 427 20,300 -1,200 Descending Memphis Center
10:59AM 35.7450 -89.0319 239° Southwest 364 419 19,100 -1,200 Descending Memphis Center
11:00AM 35.6894 -89.1200 232° Southwest 358 412 17,900 -1,200 Descending Memphis Center
11:01AM 35.6278 -89.2050 228° Southwest 339 390 16,800 -1,380 Descending Memphis Center
11:02AM 35.5658 -89.2850 226° Southwest 326 375 15,200 -1,680 Descending Memphis Center
11:03AM 35.4997 -89.3675 225° Southwest 331 381 13,500 -1,740 Descending Memphis Center
11:04AM 35.4358 -89.4497 226° Southwest 331 381 11,800 -1,500 Descending Memphis Center
11:05AM 35.3819 -89.5217 227° Southwest 326 375 10,500 -900 Descending Memphis Center
11:06AM 35.3303 -89.5858 225° Southwest 298 343 10,000 -600 Descending Memphis Center
11:07AM 35.2806 -89.6500 227° Southwest 277 319 9,300 -540 Descending Memphis Center
11:08AM 35.2350 -89.7089 227° Southwest 251 289 9,000 -180 Descending Memphis Center
11:09AM 35.1875 -89.7678 225° Southwest 246 283 9,000 -120 Level Memphis Center
11:10AM 35.1439 -89.8239 226° Southwest 241 277 8,800 -540 Descending Memphis Center
11:11AM 35.0919 -89.8672 214° Southwest 233 268 8,000 -1,140 Descending Memphis Center
11:12AM 35.0250 -89.8650 178° South 222 255 6,600 -1,380 Descending Memphis Center
11:13AM 34.9583 -89.8656 180° South 233 268 5,300 -1,620 Descending Memphis Center
11:14AM 34.8936 -89.8658 180° South 238 274 3,400 -1,620 Descending Memphis Center
11:15AM 34.8606 -89.9192 233° Southwest 192 221 2,100 -600 Descending Memphis Center
11:17AM 34.9000 -89.9667 315° West 163 188 2,000 -120 Descending KMEM
11:18AM 34.9500 -89.9667 360° North 162 186 1,900 -420 Descending KMEM
11:19AM 34.9833 -89.9667 360° North 114 131 1,200 -660 Descending KMEM
11:20AM 35.0167 -89.9667 360° North 124 143 600 -600 Descending KMEM